Time;durP1;ratioP1;P1;durP2;ratioP2;P2;SDS_P1;SDS_P2;PMS_P1;PMS_P2;Temp;Humidity;BMP_temperature;BMP_pressure;BME280_temperature;BME280_humidity;BME280_pressure;Samples;Min_cycle;Max_cycle;Signal;HPM_P1;HPM_P2
2023/06/18 00:02:03;;;;;;;7.53;6.83;;;15.40;99.90;;;;;;5079491;28;20182;-56
2023/06/18 00:04:31;;;;;;;7.73;6.93;;;15.40;99.90;;;;;;5068793;28;20190;-52
2023/06/18 00:06:58;;;;;;;7.53;6.93;;;15.30;99.90;;;;;;5083228;28;20204;-48
2023/06/18 00:09:26;;;;;;;8.37;7.57;;;15.30;99.90;;;;;;5078580;28;20208;-50
2023/06/18 00:11:53;;;;;;;7.87;7.17;;;15.30;99.90;;;;;;5064160;28;20259;-52
2023/06/18 00:14:20;;;;;;;6.70;6.20;;;15.30;99.90;;;;;;5068595;28;20294;-53
2023/06/18 00:16:47;;;;;;;7.60;6.83;;;15.30;99.90;;;;;;5082030;28;20200;-47
2023/06/18 00:19:14;;;;;;;7.47;6.87;;;15.30;99.90;;;;;;5073384;28;20210;-54
2023/06/18 00:21:41;;;;;;;7.63;6.93;;;15.20;99.90;;;;;;5048331;28;20244;-48
2023/06/18 00:24:08;;;;;;;7.53;6.83;;;15.20;99.90;;;;;;5080105;28;20606;-55
2023/06/18 00:26:36;;;;;;;7.87;7.17;;;15.30;99.90;;;;;;5056429;28;20213;-51
2023/06/18 00:29:03;;;;;;;7.57;6.97;;;15.30;99.90;;;;;;5070272;28;20287;-54
2023/06/18 00:31:32;;;;;;;8.00;7.30;;;15.20;99.90;;;;;;5080977;28;20250;-48
2023/06/18 00:34:04;;;;;;;7.27;6.57;;;15.20;99.90;;;;;;5083201;28;20293;-54
2023/06/18 00:36:32;;;;;;;7.50;6.67;;;15.20;99.90;;;;;;5075047;28;20273;-52
2023/06/18 00:38:58;;;;;;;7.90;7.17;;;15.20;99.90;;;;;;5076652;28;20197;-55
2023/06/18 00:41:27;;;;;;;6.67;6.10;;;15.30;99.90;;;;;;5059768;28;20267;-50
2023/06/18 00:43:57;;;;;;;6.57;6.07;;;15.30;99.90;;;;;;5076951;28;20198;-50
2023/06/18 00:46:25;;;;;;;7.63;7.00;;;15.30;99.90;;;;;;5079416;28;20235;-50
2023/06/18 00:48:53;;;;;;;8.47;6.30;;;15.30;99.90;;;;;;5062203;28;20233;-53
2023/06/18 00:51:21;;;;;;;7.93;7.03;;;15.30;99.90;;;;;;5046576;28;20190;-51
2023/06/18 00:53:48;;;;;;;8.80;8.00;;;15.30;99.90;;;;;;5083105;28;20256;-52
2023/06/18 00:56:15;;;;;;;8.20;7.33;;;15.30;99.90;;;;;;5044888;28;20216;-56
2023/06/18 00:58:41;;;;;;;7.63;6.93;;;15.20;99.90;;;;;;5074263;28;20202;-47
2023/06/18 01:01:10;;;;;;;7.10;6.50;;;15.20;99.90;;;;;;5078976;28;20217;-55
2023/06/18 01:03:37;;;;;;;7.50;6.90;;;15.20;99.90;;;;;;5078222;28;20178;-46
2023/06/18 01:06:06;;;;;;;8.13;7.33;;;15.10;99.90;;;;;;5073882;28;20210;-54
2023/06/18 01:08:33;;;;;;;7.83;7.13;;;15.20;99.90;;;;;;5081201;28;20201;-47
2023/06/18 01:11:03;;;;;;;7.20;6.60;;;15.10;99.90;;;;;;5082807;28;20218;-52
2023/06/18 01:13:33;;;;;;;7.70;6.90;;;15.10;99.90;;;;;;5038247;28;20224;-52
2023/06/18 01:16:03;;;;;;;7.23;6.53;;;15.10;99.90;;;;;;5055534;28;20221;-51
2023/06/18 01:18:35;;;;;;;8.20;7.37;;;15.10;99.90;;;;;;5080300;28;20225;-46
2023/06/18 01:21:05;;;;;;;7.67;6.97;;;15.00;99.90;;;;;;5080787;28;20300;-53
2023/06/18 01:23:45;;;;;;;7.30;6.60;;;14.90;99.90;;;;;;5070696;28;20193;-46
2023/06/18 01:26:13;;;;;;;7.70;7.00;;;14.90;99.90;;;;;;5077080;28;20264;-54
2023/06/18 01:28:41;;;;;;;8.03;7.30;;;14.90;99.90;;;;;;5047723;28;20573;-48
2023/06/18 01:31:08;;;;;;;7.37;6.77;;;14.80;99.90;;;;;;5078065;28;20260;-54
2023/06/18 01:33:38;;;;;;;7.90;7.10;;;14.80;99.90;;;;;;5085329;28;20206;-47
2023/06/18 01:36:08;;;;;;;8.30;7.03;;;14.80;99.90;;;;;;5085546;28;20722;-54
2023/06/18 01:38:39;;;;;;;7.90;7.10;;;14.60;99.90;;;;;;5066109;28;20212;-46
2023/06/18 01:41:11;;;;;;;8.47;7.77;;;14.60;99.90;;;;;;5085333;28;20205;-54
2023/06/18 01:43:43;;;;;;;7.70;7.10;;;14.50;99.90;;;;;;5046801;28;20194;-46
2023/06/18 01:46:13;;;;;;;9.10;8.20;;;14.40;99.90;;;;;;5059374;28;20209;-54
2023/06/18 01:48:46;;;;;;;8.07;7.37;;;14.30;99.90;;;;;;5059112;28;20946;-49
2023/06/18 01:51:16;;;;;;;8.10;7.20;;;14.30;99.90;;;;;;5078570;28;20226;-53
2023/06/18 01:53:45;;;;;;;7.97;7.17;;;14.30;99.90;;;;;;5055756;28;20218;-49
2023/06/18 01:56:13;;;;;;;8.17;7.47;;;14.20;99.90;;;;;;5083373;28;20194;-55
2023/06/18 01:58:42;;;;;;;8.67;7.87;;;14.20;99.90;;;;;;5047240;28;20728;-48
2023/06/18 02:01:11;;;;;;;8.50;7.13;;;14.20;99.90;;;;;;5055919;28;20225;-54
2023/06/18 02:03:38;;;;;;;7.73;7.13;;;14.20;99.90;;;;;;5083014;28;20185;-50
2023/06/18 02:06:07;;;;;;;7.73;7.03;;;14.30;99.90;;;;;;5084897;28;20258;-53
2023/06/18 02:08:34;;;;;;;8.30;7.60;;;14.30;99.90;;;;;;5066080;28;20269;-51
2023/06/18 02:11:01;;;;;;;8.00;7.33;;;14.20;99.90;;;;;;5086161;28;20233;-55
2023/06/18 02:13:28;;;;;;;8.40;7.50;;;14.20;99.90;;;;;;5078660;28;20182;-51
2023/06/18 02:15:55;;;;;;;8.10;7.40;;;14.10;99.90;;;;;;5057394;28;20210;-50
2023/06/18 02:18:24;;;;;;;7.67;7.03;;;14.20;99.90;;;;;;5055935;28;20198;-51
2023/06/18 02:20:51;;;;;;;8.73;7.90;;;14.20;99.90;;;;;;5086099;28;20208;-54
2023/06/18 02:23:19;;;;;;;8.77;7.87;;;14.00;99.90;;;;;;5041152;28;20225;-57
2023/06/18 02:25:46;;;;;;;8.37;7.67;;;13.90;99.90;;;;;;5065342;28;20718;-53
2023/06/18 02:28:13;;;;;;;8.43;7.57;;;13.90;99.90;;;;;;5078987;28;20186;-54
2023/06/18 02:30:40;;;;;;;7.60;6.90;;;13.90;99.90;;;;;;5063559;28;20224;-50
2023/06/18 02:33:07;;;;;;;8.27;7.50;;;13.90;99.90;;;;;;5083908;28;20293;-54
2023/06/18 02:35:34;;;;;;;8.20;7.50;;;14.00;99.90;;;;;;5083630;28;20987;-51
2023/06/18 02:38:03;;;;;;;10.93;8.53;;;14.00;99.90;;;;;;5075931;28;20198;-55
2023/06/18 02:40:33;;;;;;;8.43;7.73;;;13.90;99.90;;;;;;5078682;28;20310;-48
2023/06/18 02:43:01;;;;;;;8.13;7.33;;;13.80;99.90;;;;;;5085852;28;20652;-52
2023/06/18 02:45:29;;;;;;;9.40;8.60;;;13.80;99.90;;;;;;5048864;28;20203;-47
2023/06/18 02:47:56;;;;;;;10.17;7.83;;;13.80;99.90;;;;;;5060682;28;20216;-51
2023/06/18 02:50:23;;;;;;;9.07;8.20;;;13.80;99.90;;;;;;5055378;28;20210;-51
2023/06/18 02:52:50;;;;;;;9.13;7.67;;;13.70;99.90;;;;;;5067367;28;20198;-49
2023/06/18 02:55:17;;;;;;;8.33;7.63;;;13.80;99.90;;;;;;5073902;28;20229;-55
2023/06/18 02:57:47;;;;;;;9.27;8.37;;;13.80;99.90;;;;;;5085541;28;20182;-47
2023/06/18 03:00:14;;;;;;;9.23;8.33;;;13.80;99.90;;;;;;5062771;28;20214;-56
2023/06/18 03:02:44;;;;;;;8.47;7.67;;;13.70;99.90;;;;;;5042276;28;20210;-53
2023/06/18 03:05:16;;;;;;;7.97;7.27;;;13.70;99.90;;;;;;5063045;28;20198;-55
2023/06/18 03:07:43;;;;;;;9.10;7.93;;;13.80;99.90;;;;;;5084979;28;20603;-48
2023/06/18 03:10:11;;;;;;;8.70;7.90;;;13.70;99.90;;;;;;5057435;28;20603;-56
2023/06/18 03:12:39;;;;;;;8.67;7.87;;;13.70;99.90;;;;;;5063051;28;20200;-50
2023/06/18 03:15:20;;;;;;;8.97;8.07;;;13.60;99.90;;;;;;5060795;28;20209;-53
2023/06/18 03:17:48;;;;;;;8.43;7.67;;;13.70;99.90;;;;;;5044121;28;20673;-52
2023/06/18 03:20:15;;;;;;;8.33;7.53;;;13.80;99.90;;;;;;5062581;28;20312;-55
2023/06/18 03:22:47;;;;;;;8.83;8.03;;;13.70;99.90;;;;;;5066669;28;20293;-48
2023/06/18 03:25:14;;;;;;;9.53;8.63;;;13.70;99.90;;;;;;5051805;28;20439;-56
2023/06/18 03:27:42;;;;;;;9.47;8.57;;;13.60;99.90;;;;;;5064406;28;20212;-51
2023/06/18 03:30:11;;;;;;;9.47;8.60;;;13.60;99.90;;;;;;5064524;28;20310;-51
2023/06/18 03:32:39;;;;;;;10.03;9.13;;;13.60;99.90;;;;;;5045049;28;21196;-47
2023/06/18 03:35:07;;;;;;;9.30;8.43;;;13.60;99.90;;;;;;5082468;28;20225;-56
2023/06/18 03:37:35;;;;;;;9.97;8.13;;;13.60;99.90;;;;;;5058049;28;20217;-54
2023/06/18 03:40:03;;;;;;;9.30;8.43;;;13.60;99.90;;;;;;5065913;28;20220;-51
2023/06/18 03:42:31;;;;;;;8.87;8.07;;;13.60;99.90;;;;;;5053131;28;20843;-48
2023/06/18 03:44:57;;;;;;;9.00;8.20;;;13.60;99.90;;;;;;5084701;28;20198;-53
2023/06/18 03:47:26;;;;;;;7.93;7.23;;;13.60;99.90;;;;;;5040847;28;20287;-51
2023/06/18 03:49:54;;;;;;;9.00;8.20;;;13.60;99.90;;;;;;5059756;28;20222;-50
2023/06/18 03:52:21;;;;;;;9.03;8.13;;;13.50;99.90;;;;;;5061687;28;20198;-49
2023/06/18 03:54:49;;;;;;;9.40;8.40;;;13.50;99.90;;;;;;5065036;28;20222;-53
2023/06/18 03:57:16;;;;;;;8.97;8.23;;;13.50;99.90;;;;;;5054970;28;20194;-54
2023/06/18 03:59:44;;;;;;;10.07;8.47;;;13.50;99.90;;;;;;5065730;28;20210;-49
2023/06/18 04:02:12;;;;;;;8.70;7.90;;;13.50;99.90;;;;;;5059129;28;20263;-51
2023/06/18 04:04:40;;;;;;;9.40;8.50;;;13.50;99.90;;;;;;5063105;28;20196;-50
2023/06/18 04:07:08;;;;;;;9.90;8.90;;;13.50;99.90;;;;;;5081557;28;20194;-52
2023/06/18 04:09:35;;;;;;;9.90;8.60;;;13.60;99.90;;;;;;5063809;28;20225;-51
2023/06/18 04:12:02;;;;;;;8.80;7.90;;;13.70;99.90;;;;;;5080709;28;20182;-51
2023/06/18 04:14:28;;;;;;;9.83;8.67;;;13.70;99.90;;;;;;5049613;28;20763;-48
2023/06/18 04:16:55;;;;;;;9.77;8.87;;;13.60;99.90;;;;;;5065435;28;20198;-53
2023/06/18 04:19:22;;;;;;;8.53;7.63;;;13.60;99.90;;;;;;5058876;28;20287;-51
2023/06/18 04:21:49;;;;;;;9.67;8.77;;;13.70;99.90;;;;;;5063835;28;20198;-51
2023/06/18 04:24:17;;;;;;;9.20;8.40;;;13.80;99.90;;;;;;5076738;28;20217;-49
2023/06/18 04:26:44;;;;;;;9.07;8.20;;;13.80;99.90;;;;;;5062733;28;20190;-49
2023/06/18 04:29:11;;;;;;;9.80;8.80;;;13.80;99.90;;;;;;5051994;28;20210;-50
2023/06/18 04:31:38;;;;;;;9.57;8.73;;;13.80;99.90;;;;;;5064500;28;20255;-53
2023/06/18 04:34:06;;;;;;;8.13;7.43;;;13.90;99.90;;;;;;5042478;28;20332;-55
2023/06/18 04:36:33;;;;;;;9.30;8.50;;;14.00;99.90;;;;;;5076767;28;20214;-49
2023/06/18 04:39:00;;;;;;;8.67;7.97;;;14.10;99.90;;;;;;5060987;28;20847;-49
2023/06/18 04:41:28;;;;;;;8.77;8.07;;;14.10;99.90;;;;;;5060524;28;20190;-55
2023/06/18 04:43:55;;;;;;;10.40;9.50;;;14.10;99.90;;;;;;5054243;28;20205;-53
2023/06/18 04:46:22;;;;;;;9.07;8.13;;;14.20;99.90;;;;;;5066394;28;20182;-52
2023/06/18 04:48:49;;;;;;;9.33;8.03;;;14.30;99.90;;;;;;5037471;28;20268;-51
2023/06/18 04:51:16;;;;;;;9.37;8.47;;;14.40;99.90;;;;;;5081232;28;20218;-51
2023/06/18 04:53:44;;;;;;;9.57;8.67;;;14.40;99.90;;;;;;5063133;28;20757;-51
2023/06/18 04:56:10;;;;;;;9.20;8.20;;;14.50;99.90;;;;;;5064049;28;20299;-52
2023/06/18 04:58:42;;;;;;;10.07;8.60;;;14.60;99.90;;;;;;5059303;28;20193;-53
2023/06/18 05:01:10;;;;;;;9.90;9.00;;;14.60;99.90;;;;;;5055217;28;20232;-53
2023/06/18 05:03:38;;;;;;;9.20;8.40;;;14.70;99.90;;;;;;5052723;28;20197;-50
2023/06/18 05:06:05;;;;;;;9.93;8.90;;;14.70;99.90;;;;;;5043077;28;20259;-51
2023/06/18 05:08:34;;;;;;;10.17;9.07;;;14.80;99.90;;;;;;5060218;28;20239;-52
2023/06/18 05:11:02;;;;;;;9.87;9.07;;;14.90;99.90;;;;;;5064137;28;20572;-51
2023/06/18 05:13:31;;;;;;;10.37;9.47;;;14.90;99.90;;;;;;5056352;28;20251;-50
2023/06/18 05:16:00;;;;;;;10.80;9.80;;;15.00;99.90;;;;;;5074653;28;20209;-50
2023/06/18 05:18:29;;;;;;;10.80;9.77;;;15.10;99.90;;;;;;5061904;28;20281;-54
2023/06/18 05:20:56;;;;;;;9.37;8.40;;;15.20;99.90;;;;;;5043720;28;20262;-50
2023/06/18 05:23:24;;;;;;;11.17;10.07;;;15.30;99.90;;;;;;5068691;28;20217;-53
2023/06/18 05:25:52;;;;;;;10.43;9.20;;;15.40;99.90;;;;;;5076240;28;20377;-54
2023/06/18 05:28:19;;;;;;;9.53;8.63;;;15.50;99.90;;;;;;5081714;28;20186;-52
2023/06/18 05:30:47;;;;;;;9.13;8.33;;;15.60;99.90;;;;;;5044692;28;20806;-54
2023/06/18 05:33:16;;;;;;;9.73;8.83;;;15.70;99.90;;;;;;5064633;28;20202;-51
2023/06/18 05:35:46;;;;;;;9.20;8.40;;;15.80;99.90;;;;;;5038094;28;20247;-53
2023/06/18 05:38:13;;;;;;;10.00;9.10;;;15.90;99.90;;;;;;5079555;28;20660;-54
2023/06/18 05:40:40;;;;;;;11.97;10.77;;;16.00;99.90;;;;;;5079369;28;20201;-50
2023/06/18 05:43:08;;;;;;;10.10;9.20;;;16.10;99.90;;;;;;5064520;28;20229;-51
2023/06/18 05:45:44;;;;;;;10.17;9.13;;;16.20;99.90;;;;;;5054389;28;20933;-50
2023/06/18 05:48:14;;;;;;;11.33;10.27;;;16.30;99.90;;;;;;5059187;28;20285;-54
2023/06/18 05:50:52;;;;;;;9.27;8.33;;;16.40;99.90;;;;;;5062490;28;20229;-54
2023/06/18 05:53:19;;;;;;;9.57;8.63;;;16.50;99.90;;;;;;5043035;28;20210;-49
2023/06/18 05:55:47;;;;;;;10.37;8.27;;;16.60;99.90;;;;;;5061664;28;20218;-50
2023/06/18 05:58:14;;;;;;;9.90;8.73;;;16.60;99.90;;;;;;5082493;28;20304;-52
2023/06/18 06:00:41;;;;;;;8.53;7.73;;;16.80;99.90;;;;;;5047711;28;20237;-53
2023/06/18 06:03:10;;;;;;;11.17;8.40;;;16.90;99.90;;;;;;5082909;28;20192;-55
2023/06/18 06:05:38;;;;;;;8.70;7.93;;;16.90;99.90;;;;;;5060209;28;20411;-50
2023/06/18 06:08:07;;;;;;;9.17;8.47;;;17.10;99.90;;;;;;5061065;28;20206;-51
2023/06/18 06:10:36;;;;;;;8.53;7.73;;;17.20;99.90;;;;;;5060390;28;20210;-49
2023/06/18 06:13:03;;;;;;;8.80;7.90;;;17.30;99.90;;;;;;5061220;28;20543;-50
2023/06/18 06:15:31;;;;;;;8.83;8.03;;;17.40;99.90;;;;;;5055784;28;20217;-53
2023/06/18 06:17:58;;;;;;;9.40;8.57;;;17.50;99.90;;;;;;5067858;28;20204;-49
2023/06/18 06:20:26;;;;;;;8.73;7.87;;;17.60;99.90;;;;;;5064437;28;20695;-51
2023/06/18 06:22:53;;;;;;;8.00;7.27;;;17.70;99.90;;;;;;5043884;28;20720;-52
2023/06/18 06:25:21;;;;;;;8.57;7.87;;;17.90;99.90;;;;;;5079672;28;20182;-51
2023/06/18 06:27:48;;;;;;;8.00;7.30;;;18.00;99.90;;;;;;5065927;28;20193;-51
2023/06/18 06:30:15;;;;;;;7.70;7.00;;;18.10;99.90;;;;;;5084765;28;20621;-51
2023/06/18 06:32:42;;;;;;;7.97;7.23;;;18.20;99.90;;;;;;5088268;28;20248;-54
2023/06/18 06:35:09;;;;;;;7.57;6.90;;;18.30;99.90;;;;;;5082490;28;20216;-51
2023/06/18 06:37:37;;;;;;;7.60;6.90;;;18.40;99.90;;;;;;5032377;28;20228;-50
2023/06/18 06:40:07;;;;;;;7.40;6.80;;;18.50;99.90;;;;;;5068270;28;20221;-54
2023/06/18 06:42:38;;;;;;;7.60;6.27;;;18.60;99.90;;;;;;5059000;28;20202;-53
2023/06/18 06:45:23;;;;;;;7.97;7.03;;;18.70;99.90;;;;;;5060208;28;20202;-52
2023/06/18 06:48:16;;;;;;;6.30;5.80;;;18.90;99.90;;;;;;5044190;28;20209;-49
2023/06/18 06:50:53;;;;;;;7.30;6.70;;;19.10;99.90;;;;;;5080835;28;20260;-49
2023/06/18 06:53:22;;;;;;;7.00;6.50;;;19.20;99.90;;;;;;5064645;28;20298;-53
2023/06/18 06:55:49;;;;;;;6.90;6.23;;;19.30;99.90;;;;;;5045670;28;20943;-53
2023/06/18 06:58:20;;;;;;;7.30;6.70;;;19.40;99.90;;;;;;5059349;28;20280;-50
2023/06/18 07:00:47;;;;;;;6.70;6.17;;;19.60;99.90;;;;;;5058794;28;23005;-49
2023/06/18 07:03:14;;;;;;;6.60;6.00;;;19.80;99.90;;;;;;5072096;28;20198;-51
2023/06/18 07:05:41;;;;;;;6.00;5.60;;;19.90;99.90;;;;;;5078041;28;20319;-53
2023/06/18 07:08:08;;;;;;;6.43;5.93;;;19.90;99.90;;;;;;5083917;28;20189;-54
2023/06/18 07:10:35;;;;;;;6.60;6.00;;;20.00;99.90;;;;;;5060755;28;20678;-53
2023/06/18 07:13:02;;;;;;;6.50;6.00;;;20.10;99.90;;;;;;5070261;28;21173;-53
2023/06/18 07:15:31;;;;;;;6.43;5.83;;;20.10;99.90;;;;;;5059116;28;20641;-49
2023/06/18 07:17:58;;;;;;;6.40;5.60;;;20.20;99.90;;;;;;5073868;28;20205;-49
2023/06/18 07:20:25;;;;;;;6.53;6.03;;;20.40;99.90;;;;;;5080170;28;20206;-52
2023/06/18 07:22:52;;;;;;;6.07;5.47;;;20.50;99.90;;;;;;5077785;28;20179;-50
2023/06/18 07:25:19;;;;;;;5.30;4.80;;;20.60;99.90;;;;;;5059384;28;20230;-51
2023/06/18 07:27:46;;;;;;;6.17;5.63;;;20.70;99.90;;;;;;5083294;28;20178;-54
2023/06/18 07:30:14;;;;;;;5.63;5.23;;;20.70;99.90;;;;;;5081985;28;20229;-54
2023/06/18 07:32:42;;;;;;;5.70;5.30;;;20.90;99.90;;;;;;5054592;28;20186;-52
2023/06/18 07:35:09;;;;;;;5.87;5.37;;;20.90;99.90;;;;;;5086491;28;20671;-51
2023/06/18 07:37:36;;;;;;;6.00;5.47;;;21.00;99.90;;;;;;5077004;28;20198;-47
2023/06/18 07:40:03;;;;;;;6.07;5.57;;;21.10;99.90;;;;;;5066436;28;20707;-50
2023/06/18 07:42:30;;;;;;;6.00;5.50;;;21.10;99.90;;;;;;5082901;28;20273;-54
2023/06/18 07:44:57;;;;;;;5.97;5.47;;;21.20;99.90;;;;;;5089532;28;20198;-52
2023/06/18 07:47:24;;;;;;;5.67;5.17;;;21.30;99.90;;;;;;5062202;28;20206;-52
2023/06/18 07:49:52;;;;;;;5.80;5.40;;;21.40;99.90;;;;;;5082187;28;20298;-52
2023/06/18 07:52:19;;;;;;;5.50;5.00;;;21.50;99.90;;;;;;5074390;28;20663;-50
2023/06/18 07:54:46;;;;;;;5.17;4.87;;;21.60;99.90;;;;;;5075313;28;20198;-52
2023/06/18 07:57:13;;;;;;;5.33;4.83;;;21.70;99.90;;;;;;5062090;28;20302;-53
2023/06/18 07:59:39;;;;;;;5.37;4.97;;;21.70;99.90;;;;;;5075370;28;20214;-52
2023/06/18 08:02:06;;;;;;;5.77;5.27;;;21.80;99.90;;;;;;5079632;28;20228;-50
2023/06/18 08:04:33;;;;;;;4.80;4.40;;;21.80;99.90;;;;;;5074124;28;20189;-51
2023/06/18 08:07:01;;;;;;;5.00;4.50;;;21.90;99.90;;;;;;5088554;28;20725;-51
2023/06/18 08:09:28;;;;;;;4.90;4.50;;;22.00;99.90;;;;;;5075394;28;20231;-54
2023/06/18 08:11:56;;;;;;;5.57;5.07;;;22.10;99.90;;;;;;5056564;28;20208;-53
2023/06/18 08:14:22;;;;;;;4.73;4.23;;;22.20;99.90;;;;;;5086231;28;20194;-52
2023/06/18 08:16:50;;;;;;;4.90;4.40;;;22.20;99.90;;;;;;5072379;28;20221;-51
2023/06/18 08:19:17;;;;;;;5.60;5.10;;;22.30;99.90;;;;;;5076431;28;20608;-52
2023/06/18 08:21:43;;;;;;;5.50;4.70;;;22.40;99.90;;;;;;5074282;28;20267;-52
2023/06/18 08:24:12;;;;;;;5.47;4.40;;;22.50;99.90;;;;;;5077270;28;20554;-53
2023/06/18 08:26:40;;;;;;;5.30;4.90;;;22.50;99.90;;;;;;5051761;28;20880;-54
2023/06/18 08:29:10;;;;;;;5.03;4.63;;;;;;;;;;5085218;28;20190;-49
2023/06/18 08:31:40;;;;;;;5.40;5.00;;;;;;;;;;5072069;28;20203;-50
2023/06/18 08:34:07;;;;;;;4.80;4.40;;;22.80;99.20;;;;;;5063891;28;20222;-51
2023/06/18 08:36:34;;;;;;;5.07;4.68;;;22.90;99.50;;;;;;5072093;28;20218;-55
2023/06/18 08:39:01;;;;;;;5.43;4.60;;;23.00;99.20;;;;;;5078607;28;20247;-53
2023/06/18 08:41:30;;;;;;;4.82;4.30;;;23.00;98.90;;;;;;5075822;28;20212;-56
2023/06/18 08:43:57;;;;;;;4.97;4.57;;;23.10;98.90;;;;;;5059670;28;20228;-50
2023/06/18 08:46:27;;;;;;;5.18;4.68;;;23.10;98.80;;;;;;5078282;28;20664;-53
2023/06/18 08:48:58;;;;;;;10.45;4.78;;;23.30;98.40;;;;;;5067534;28;20283;-51
2023/06/18 08:51:25;;;;;;;5.25;4.80;;;23.40;97.80;;;;;;5076398;28;20668;-50
2023/06/18 08:53:59;;;;;;;5.47;4.97;;;23.30;97.70;;;;;;5081219;28;20274;-49
2023/06/18 08:56:27;;;;;;;5.20;4.70;;;23.40;97.50;;;;;;5075602;28;20295;-51
2023/06/18 08:58:57;;;;;;;5.72;5.22;;;23.40;97.60;;;;;;5033741;28;20202;-52
2023/06/18 09:01:25;;;;;;;5.85;5.35;;;23.60;97.30;;;;;;5078949;28;20190;-53
2023/06/18 09:03:56;;;;;;;5.05;4.65;;;23.60;97.50;;;;;;5055364;28;20603;-50
2023/06/18 09:06:24;;;;;;;5.10;4.70;;;23.70;97.40;;;;;;5064827;28;20738;-50
2023/06/18 09:08:51;;;;;;;5.28;4.93;;;23.90;96.60;;;;;;5080868;28;20606;-48
2023/06/18 09:11:18;;;;;;;5.35;4.85;;;24.00;96.50;;;;;;5073296;28;20435;-54
2023/06/18 09:13:45;;;;;;;5.10;4.70;;;24.00;96.20;;;;;;5069236;28;20201;-50
2023/06/18 09:16:13;;;;;;;4.75;4.45;;;24.00;96.00;;;;;;5061468;28;20310;-53
2023/06/18 09:18:40;;;;;;;5.13;4.72;;;24.10;95.30;;;;;;5070109;28;20206;-51
2023/06/18 09:21:07;;;;;;;4.65;4.35;;;24.00;95.10;;;;;;5063416;28;20237;-49
2023/06/18 09:23:35;;;;;;;5.45;4.45;;;24.00;95.00;;;;;;5069438;28;20264;-54
2023/06/18 09:26:03;;;;;;;4.85;4.55;;;24.00;95.20;;;;;;5078006;28;20707;-54
2023/06/18 09:28:30;;;;;;;4.18;3.88;;;24.00;94.50;;;;;;5063147;28;20213;-51
2023/06/18 09:30:59;;;;;;;4.63;4.32;;;24.10;94.30;;;;;;5057363;28;20253;-51
2023/06/18 09:33:32;;;;;;;4.47;4.18;;;24.20;94.20;;;;;;5074323;28;20190;-51
2023/06/18 09:36:03;;;;;;;5.03;4.55;;;24.20;93.80;;;;;;5054650;28;20324;-51
2023/06/18 09:38:35;;;;;;;4.50;4.07;;;24.10;93.40;;;;;;5077429;28;20263;-51
2023/06/18 09:41:02;;;;;;;4.65;4.25;;;24.20;93.50;;;;;;5078848;28;20233;-54
2023/06/18 09:43:36;;;;;;;5.43;4.18;;;24.30;93.20;;;;;;5075873;28;20721;-53
2023/06/18 09:46:07;;;;;;;6.15;4.13;;;24.40;92.80;;;;;;5063336;28;20244;-52
2023/06/18 09:48:36;;;;;;;5.00;4.70;;;24.40;92.30;;;;;;5067338;28;20206;-53
2023/06/18 09:51:04;;;;;;;3.88;3.58;;;24.40;92.10;;;;;;5066460;28;21225;-50
2023/06/18 09:53:31;;;;;;;4.50;4.13;;;24.30;92.40;;;;;;5059605;28;20206;-51
2023/06/18 09:56:10;;;;;;;4.53;4.13;;;24.50;92.60;;;;;;5083050;28;20610;-49
2023/06/18 09:58:41;;;;;;;5.03;4.25;;;24.60;92.10;;;;;;5079880;28;20251;-50
2023/06/18 10:01:08;;;;;;;4.30;4.00;;;24.80;91.60;;;;;;5055691;28;20213;-51
2023/06/18 10:03:36;;;;;;;4.32;4.03;;;24.70;91.70;;;;;;5077501;28;20206;-53
2023/06/18 10:06:13;;;;;;;4.63;4.32;;;24.70;91.50;;;;;;5064769;28;20202;-52
2023/06/18 10:08:44;;;;;;;4.65;4.18;;;24.90;91.30;;;;;;5079915;28;20284;-55
2023/06/18 10:11:11;;;;;;;4.18;3.78;;;24.80;90.50;;;;;;5075962;28;20271;-54
2023/06/18 10:13:44;;;;;;;4.60;4.30;;;24.90;90.10;;;;;;5075588;28;20236;-52
2023/06/18 10:16:14;;;;;;;4.10;3.70;;;24.90;89.10;;;;;;5055170;28;20209;-52
2023/06/18 10:18:54;;;;;;;4.05;3.65;;;24.80;88.80;;;;;;5072274;28;20210;-52
2023/06/18 10:21:23;;;;;;;4.05;3.75;;;24.90;87.00;;;;;;5069192;28;20275;-47
2023/06/18 10:23:56;;;;;;;4.00;3.78;;;25.00;87.40;;;;;;5068099;28;21309;-53
2023/06/18 10:26:23;;;;;;;4.13;3.90;;;25.10;86.50;;;;;;5079797;28;20270;-48
2023/06/18 10:28:51;;;;;;;4.75;3.90;;;25.20;86.20;;;;;;5081789;28;20189;-49
2023/06/18 10:31:19;;;;;;;4.55;3.67;;;25.30;85.00;;;;;;5043444;28;20212;-54
2023/06/18 10:33:48;;;;;;;3.92;3.72;;;25.40;83.70;;;;;;5074375;28;20197;-48
2023/06/18 10:36:16;;;;;;;3.47;3.17;;;25.40;82.40;;;;;;5065659;28;20294;-55
2023/06/18 10:38:44;;;;;;;4.55;3.88;;;25.50;82.30;;;;;;5075597;28;20255;-49
2023/06/18 10:41:11;;;;;;;4.03;3.72;;;25.50;81.00;;;;;;5077569;28;20210;-52
2023/06/18 10:43:42;;;;;;;3.88;3.53;;;25.50;80.80;;;;;;5085034;28;20246;-48
2023/06/18 10:46:13;;;;;;;3.45;3.25;;;25.50;80.00;;;;;;5058133;28;20201;-45
2023/06/18 10:48:40;;;;;;;3.30;3.10;;;25.50;79.50;;;;;;5078674;28;20198;-51
2023/06/18 10:51:16;;;;;;;4.05;3.30;;;25.60;78.40;;;;;;5073644;28;20629;-50
2023/06/18 10:53:44;;;;;;;4.65;3.65;;;25.70;77.40;;;;;;5076558;28;20726;-50
2023/06/18 10:56:11;;;;;;;3.35;3.15;;;25.80;76.30;;;;;;5073690;28;20288;-48
2023/06/18 10:58:40;;;;;;;3.78;3.47;;;25.80;75.00;;;;;;5065989;28;20900;-49
2023/06/18 11:01:07;;;;;;;3.85;3.55;;;25.70;75.40;;;;;;5075701;28;20244;-48
2023/06/18 11:03:35;;;;;;;4.55;4.15;;;25.80;76.30;;;;;;5058804;28;20232;-49
2023/06/18 11:06:04;;;;;;;4.25;3.88;;;25.80;74.80;;;;;;5076623;28;20198;-48
2023/06/18 11:08:34;;;;;;;4.30;4.00;;;25.80;76.30;;;;;;5070484;28;20197;-49
2023/06/18 11:11:06;;;;;;;5.15;4.25;;;25.90;76.90;;;;;;5073504;28;20226;-49
2023/06/18 11:13:37;;;;;;;4.80;4.40;;;25.90;76.70;;;;;;5077562;28;20206;-51
2023/06/18 11:16:16;;;;;;;4.20;3.80;;;25.80;76.40;;;;;;5083188;28;20251;-47
2023/06/18 11:18:44;;;;;;;4.85;4.45;;;25.90;77.20;;;;;;5064741;28;20263;-52
2023/06/18 11:21:15;;;;;;;3.83;3.53;;;25.90;76.50;;;;;;5068465;28;20220;-47
2023/06/18 11:23:44;;;;;;;5.35;4.28;;;25.90;76.60;;;;;;5074405;28;20216;-53
2023/06/18 11:26:15;;;;;;;3.85;3.55;;;26.10;75.80;;;;;;5075407;28;20204;-52
2023/06/18 11:28:42;;;;;;;4.45;4.13;;;;;;;;;;5078813;28;20194;-53
2023/06/18 11:31:10;;;;;;;4.38;4.00;;;;;;;;;;5082428;28;20291;-51
2023/06/18 11:33:38;;;;;;;4.45;4.00;;;;;;;;;;5040771;28;20925;-51
2023/06/18 11:36:08;;;;;;;4.13;3.72;;;;;;;;;;5073417;28;20569;-48
2023/06/18 11:38:36;;;;;;;3.78;3.47;;;;;;;;;;5056799;28;20214;-50
2023/06/18 11:41:04;;;;;;;4.00;3.72;;;;;;;;;;5077359;28;20243;-47
2023/06/18 11:43:44;;;;;;;3.67;3.38;;;;;;;;;;5081406;28;20197;-52
2023/06/18 11:46:14;;;;;;;3.80;3.50;;;;;;;;;;5068025;28;20977;-50
2023/06/18 11:48:45;;;;;;;3.92;3.60;;;;;;;;;;5063511;28;20259;-51
2023/06/18 11:51:12;;;;;;;2.97;2.78;;;27.10;68.40;;;;;;5071342;28;21342;-50
2023/06/18 11:53:40;;;;;;;3.38;3.17;;;27.00;68.00;;;;;;5069775;28;20206;-52
2023/06/18 11:56:10;;;;;;;3.30;3.10;;;27.10;65.80;;;;;;5067431;28;20238;-52
2023/06/18 11:58:37;;;;;;;3.42;3.22;;;26.90;65.40;;;;;;5078283;28;20210;-49
2023/06/18 12:01:04;;;;;;;3.70;3.50;;;26.80;65.90;;;;;;5074157;28;20612;-48
2023/06/18 12:03:34;;;;;;;3.47;3.17;;;26.80;65.70;;;;;;5075005;28;20291;-48
2023/06/18 12:06:11;;;;;;;3.25;3.10;;;26.80;64.50;;;;;;5054981;28;20266;-45
2023/06/18 12:08:43;;;;;;;4.50;3.35;;;26.80;64.10;;;;;;5071284;28;20320;-45
2023/06/18 12:11:23;;;;;;;3.40;3.20;;;26.90;64.20;;;;;;5069191;28;20213;-52
2023/06/18 12:13:52;;;;;;;3.45;3.25;;;27.00;63.40;;;;;;5077042;28;20209;-50
2023/06/18 12:16:25;;;;;;;5.65;3.72;;;27.00;66.10;;;;;;5065026;28;20860;-50
2023/06/18 12:18:58;;;;;;;10.40;4.10;;;27.10;68.90;;;;;;5069332;28;20297;-45
2023/06/18 12:21:25;;;;;;;3.72;3.53;;;26.90;68.40;;;;;;5063216;28;20229;-48
2023/06/18 12:23:53;;;;;;;4.30;3.85;;;27.00;67.60;;;;;;5071511;28;20221;-47
2023/06/18 12:26:21;;;;;;;3.92;3.55;;;27.00;67.10;;;;;;5067269;28;20185;-50
2023/06/18 12:28:49;;;;;;;4.15;3.85;;;27.00;66.60;;;;;;5078408;28;20206;-47
2023/06/18 12:31:16;;;;;;;9.18;3.75;;;27.10;66.60;;;;;;5072937;28;20351;-51
2023/06/18 12:33:45;;;;;;;4.03;3.55;;;27.20;68.10;;;;;;5077371;28;20194;-49
2023/06/18 12:36:12;;;;;;;3.95;3.65;;;27.40;66.50;;;;;;5057484;28;20198;-49
2023/06/18 12:38:39;;;;;;;5.15;3.90;;;27.40;64.90;;;;;;5052569;28;20239;-50
2023/06/18 12:41:08;;;;;;;4.13;3.63;;;27.40;64.40;;;;;;5074096;28;20370;-49
2023/06/18 12:43:41;;;;;;;3.78;3.47;;;27.60;64.50;;;;;;5073709;28;20552;-47
2023/06/18 12:46:09;;;;;;;3.70;3.50;;;27.60;63.10;;;;;;5065995;28;20563;-51
2023/06/18 12:48:40;;;;;;;3.55;3.25;;;27.90;62.70;;;;;;5073627;28;20202;-50
2023/06/18 12:51:08;;;;;;;3.63;3.33;;;28.10;62.00;;;;;;5060125;28;20233;-47
2023/06/18 12:53:34;;;;;;;3.63;3.33;;;28.30;61.60;;;;;;5072466;28;20201;-46
2023/06/18 12:56:19;;;;;;;3.80;3.55;;;28.50;62.10;;;;;;5067070;28;20205;-50
2023/06/18 12:58:47;;;;;;;3.05;2.85;;;29.00;57.60;;;;;;5074679;28;20241;-50